Time;durP1;ratioP1;P1;durP2;ratioP2;P2;SDS_P1;SDS_P2;PMS_P1;PMS_P2;Temp;Humidity;BMP_temperature;BMP_pressure;BME280_temperature;BME280_humidity;BME280_pressure;Samples;Min_cycle;Max_cycle;Signal;HPM_P1;HPM_P2
2023/06/15 00:00:14;;;;;;;11.98;6.22;;;;;;;;;;5076929;28;20045;-71
2023/06/15 00:02:41;;;;;;;14.25;6.00;;;18.30;96.80;;;;;;5091758;28;20552;-68
2023/06/15 00:05:07;;;;;;;16.35;5.60;;;17.80;98.50;;;;;;5093384;28;20048;-68
2023/06/15 00:07:33;;;;;;;19.30;6.35;;;18.80;99.90;;;;;;5093594;28;20047;-68
2023/06/15 00:09:59;;;;;;;23.98;6.18;;;17.00;99.90;;;;;;5079708;28;20053;-69
2023/06/15 00:12:25;;;;;;;18.95;6.10;;;;;;;;;;5073350;28;20157;-69
2023/06/15 00:14:50;;;;;;;13.65;6.00;;;18.20;99.90;;;;;;5073678;28;20036;-68
2023/06/15 00:17:17;;;;;;;20.73;5.97;;;18.90;99.90;;;;;;5056642;28;20477;-68
2023/06/15 00:19:44;;;;;;;13.98;5.65;;;18.90;99.90;;;;;;5073229;28;20049;-69
2023/06/15 00:22:14;;;;;;;16.10;5.63;;;16.80;99.70;;;;;;5073380;28;20048;-69
2023/06/15 00:24:43;;;;;;;18.27;7.60;;;17.80;99.90;;;;;;5072428;28;20043;-68
2023/06/15 00:27:10;;;;;;;14.77;5.85;;;17.80;99.90;;;;;;5072959;28;20158;-69
2023/06/15 00:29:37;;;;;;;15.55;5.60;;;17.40;99.90;;;;;;5073133;28;20564;-68
2023/06/15 00:32:04;;;;;;;14.65;5.75;;;17.60;97.60;;;;;;5072917;28;20119;-68
2023/06/15 00:34:30;;;;;;;20.80;5.78;;;16.70;99.90;;;;;;5073236;28;20048;-68
2023/06/15 00:36:56;;;;;;;14.45;5.65;;;;;;;;;;5072925;28;20381;-68
2023/06/15 00:39:22;;;;;;;15.30;5.50;;;;;;;;;;5073302;28;20032;-69
2023/06/15 00:41:48;;;;;;;13.95;5.63;;;;;;;;;;5079677;28;20438;-68
2023/06/15 00:44:14;;;;;;;18.80;5.70;;;;;;;;;;5059675;28;20032;-68
2023/06/15 00:46:40;;;;;;;12.82;5.93;;;16.80;98.60;;;;;;5092933;28;20504;-68
2023/06/15 00:49:07;;;;;;;18.42;5.30;;;;;;;;;;5076176;28;20054;-68
2023/06/15 00:51:35;;;;;;;10.20;5.60;;;16.80;99.90;;;;;;5092169;28;20563;-68
2023/06/15 00:54:02;;;;;;;10.82;4.80;;;17.30;99.90;;;;;;5092779;28;20051;-68
2023/06/15 00:56:29;;;;;;;10.15;5.03;;;18.60;99.80;;;;;;5092868;28;20052;-69
2023/06/15 00:58:58;;;;;;;11.35;4.97;;;18.50;99.90;;;;;;5092457;28;20048;-68
2023/06/15 01:01:25;;;;;;;14.85;5.82;;;17.90;99.90;;;;;;5092774;28;20388;-68
2023/06/15 01:03:51;;;;;;;10.15;4.85;;;;;;;;;;5092229;28;20144;-68
2023/06/15 01:06:19;;;;;;;11.20;4.47;;;18.40;98.30;;;;;;5092774;28;20176;-68
2023/06/15 01:08:48;;;;;;;14.75;5.07;;;18.10;99.90;;;;;;5092535;28;20036;-68
2023/06/15 01:11:15;;;;;;;9.73;4.40;;;18.50;99.90;;;;;;5092348;28;20054;-68
2023/06/15 01:13:43;;;;;;;10.77;5.03;;;18.70;99.90;;;;;;5092324;28;20040;-68
2023/06/15 01:16:17;;;;;;;10.85;4.72;;;17.40;98.30;;;;;;5075525;28;20046;-68
2023/06/15 01:18:46;;;;;;;9.80;3.97;;;18.10;99.90;;;;;;5081384;28;20052;-68
2023/06/15 01:21:13;;;;;;;10.23;4.80;;;17.70;98.00;;;;;;5072274;28;20079;-68
2023/06/15 01:24:09;;;;;;;11.65;4.63;;;17.50;98.70;;;;;;5072095;28;20389;-68
2023/06/15 01:26:38;;;;;;;10.55;4.72;;;17.20;97.80;;;;;;5072166;28;20047;-68
2023/06/15 01:29:05;;;;;;;6.20;4.20;;;17.10;99.90;;;;;;5088522;28;20070;-68
2023/06/15 01:31:32;;;;;;;11.00;4.05;;;16.30;99.90;;;;;;5092034;28;20077;-68
2023/06/15 01:34:00;;;;;;;15.25;4.70;;;;;;;;;;5092013;28;20515;-68
2023/06/15 01:36:26;;;;;;;6.10;4.05;;;16.20;99.90;;;;;;5091847;28;20093;-68
2023/06/15 01:38:56;;;;;;;9.00;4.50;;;16.90;99.90;;;;;;5092132;28;20039;-68
2023/06/15 01:41:25;;;;;;;9.00;4.22;;;17.20;98.60;;;;;;5091929;28;20469;-68
2023/06/15 01:43:52;;;;;;;10.80;4.43;;;17.70;99.90;;;;;;5077775;28;20098;-68
2023/06/15 01:46:19;;;;;;;6.30;3.92;;;17.30;98.30;;;;;;5068675;28;20051;-68
2023/06/15 01:48:45;;;;;;;8.95;4.88;;;16.40;99.90;;;;;;5091923;28;20165;-68
2023/06/15 01:51:11;;;;;;;9.50;4.20;;;17.10;98.50;;;;;;5089887;28;20119;-69
2023/06/15 01:53:37;;;;;;;12.88;4.43;;;;;;;;;;5071909;28;20480;-68
2023/06/15 01:56:04;;;;;;;15.25;4.45;;;;;;;;;;5071876;28;20048;-68
2023/06/15 01:58:30;;;;;;;8.30;4.05;;;;;;;;;;5081358;28;20040;-69
2023/06/15 02:00:56;;;;;;;16.90;4.75;;;15.90;99.90;;;;;;5090154;28;20543;-68
2023/06/15 02:03:22;;;;;;;8.93;3.90;;;;;;;;;;5062505;28;20135;-68
2023/06/15 02:05:48;;;;;;;15.52;4.15;;;;;;;;;;5074928;28;20050;-68
2023/06/15 02:08:14;;;;;;;9.60;4.18;;;15.90;99.90;;;;;;5091922;28;20125;-68
2023/06/15 02:10:40;;;;;;;7.50;3.72;;;16.10;99.90;;;;;;5074792;28;20472;-68
2023/06/15 02:13:12;;;;;;;9.23;4.80;;;16.90;99.10;;;;;;5074559;28;20050;-68
2023/06/15 02:15:38;;;;;;;6.20;3.70;;;;;;;;;;5083500;28;20044;-73
2023/06/15 02:18:12;;;;;;;8.75;4.50;;;16.90;99.20;;;;;;5059532;28;20032;-74
2023/06/15 02:20:40;;;;;;;10.70;4.00;;;17.10;99.30;;;;;;5091326;28;20044;-75
2023/06/15 02:23:06;;;;;;;7.93;4.25;;;;;;;;;;5091194;28;20048;-74
2023/06/15 02:25:32;;;;;;;9.63;3.88;;;16.30;99.90;;;;;;5091146;28;20472;-72
2023/06/15 02:27:57;;;;;;;11.02;4.30;;;15.70;99.90;;;;;;5091312;28;20062;-68
2023/06/15 02:30:25;;;;;;;11.23;4.30;;;17.40;99.90;;;;;;5063287;28;20048;-68
2023/06/15 02:32:52;;;;;;;12.15;4.47;;;;;;;;;;5071428;28;20040;-69
2023/06/15 02:35:18;;;;;;;11.18;4.40;;;16.90;99.90;;;;;;5071602;28;20105;-68
2023/06/15 02:37:44;;;;;;;6.40;4.28;;;17.50;99.90;;;;;;5071416;28;20507;-69
2023/06/15 02:40:10;;;;;;;7.25;3.92;;;;;;;;;;5071268;28;20036;-69
2023/06/15 02:42:37;;;;;;;8.57;5.15;;;17.20;99.60;;;;;;5054440;28;20044;-70
2023/06/15 02:45:06;;;;;;;9.45;4.25;;;16.50;99.90;;;;;;5071289;28;20040;-69
2023/06/15 02:47:32;;;;;;;8.48;4.28;;;;;;;;;;5071215;28;20044;-68
2023/06/15 02:49:59;;;;;;;13.98;4.60;;;15.70;99.90;;;;;;5074559;28;20045;-68
2023/06/15 02:52:30;;;;;;;7.88;4.18;;;17.00;99.90;;;;;;5063948;28;20522;-69
2023/06/15 02:54:57;;;;;;;8.82;3.97;;;16.90;99.60;;;;;;5082780;28;20040;-71
2023/06/15 02:57:24;;;;;;;6.43;4.18;;;17.00;99.30;;;;;;5076714;28;20587;-68
2023/06/15 02:59:50;;;;;;;5.50;4.10;;;15.60;99.90;;;;;;5086873;28;20505;-68
2023/06/15 03:02:16;;;;;;;7.28;4.28;;;;;;;;;;5056606;28;20044;-68
2023/06/15 03:04:46;;;;;;;13.85;4.35;;;;;;;;;;5081021;28;20461;-68
2023/06/15 03:07:16;;;;;;;13.27;4.30;;;;;;;;;;5095172;28;20089;-69
2023/06/15 03:09:46;;;;;;;10.15;4.32;;;16.60;99.10;;;;;;5094807;28;20044;-68
2023/06/15 03:12:12;;;;;;;7.80;4.28;;;;;;;;;;5095199;28;20040;-70
2023/06/15 03:14:39;;;;;;;9.07;4.43;;;;;;;;;;5095881;28;20048;-68
2023/06/15 03:17:08;;;;;;;6.55;4.40;;;17.50;99.90;;;;;;5075941;28;20059;-68
2023/06/15 03:19:33;;;;;;;8.35;5.22;;;15.80;99.90;;;;;;5075735;28;20045;-68
2023/06/15 03:22:00;;;;;;;9.68;4.53;;;15.80;99.90;;;;;;5088866;28;20048;-68
2023/06/15 03:24:26;;;;;;;11.98;4.70;;;17.40;99.90;;;;;;5057432;28;20480;-68
2023/06/15 03:26:56;;;;;;;7.60;4.40;;;;;;;;;;5074614;28;20081;-67
2023/06/15 03:29:26;;;;;;;8.32;4.10;;;;;;;;;;5074295;28;20044;-68
2023/06/15 03:31:52;;;;;;;7.15;4.35;;;15.90;99.90;;;;;;5077714;28;20400;-68
2023/06/15 03:34:18;;;;;;;9.32;4.22;;;;;;;;;;5059688;28;20613;-67
2023/06/15 03:36:45;;;;;;;11.25;4.53;;;;;;;;;;5057708;28;20048;-67
2023/06/15 03:39:11;;;;;;;7.25;4.38;;;;;;;;;;5077942;28;20476;-68
2023/06/15 03:41:37;;;;;;;8.32;5.03;;;;;;;;;;5057806;28;20470;-68
2023/06/15 03:44:03;;;;;;;8.45;4.35;;;16.20;99.90;;;;;;5075109;28;20050;-68
2023/06/15 03:46:29;;;;;;;8.50;4.00;;;16.80;99.90;;;;;;5075211;28;20430;-68
2023/06/15 03:48:55;;;;;;;10.30;5.10;;;;;;;;;;5057401;28;20044;-68
2023/06/15 03:51:22;;;;;;;7.70;4.28;;;;;;;;;;5068913;28;20469;-68
2023/06/15 03:53:48;;;;;;;6.43;3.88;;;;;;;;;;5064149;28;20120;-68
2023/06/15 03:56:13;;;;;;;9.20;4.20;;;17.30;99.90;;;;;;5090827;28;20036;-68
2023/06/15 03:58:39;;;;;;;7.55;4.32;;;17.50;99.90;;;;;;5075132;28;20036;-68
2023/06/15 04:01:05;;;;;;;7.50;3.97;;;;;;;;;;5078783;28;20400;-68
2023/06/15 04:03:35;;;;;;;7.72;4.43;;;;;;;;;;5071264;28;20044;-68
2023/06/15 04:06:04;;;;;;;7.70;4.22;;;;;;;;;;5076857;28;20043;-68
2023/06/15 04:08:31;;;;;;;7.63;4.30;;;16.60;99.90;;;;;;5083734;28;20124;-68
2023/06/15 04:10:58;;;;;;;6.35;4.25;;;;;;;;;;5093843;28;20052;-68
2023/06/15 04:13:24;;;;;;;8.00;4.60;;;;;;;;;;5076713;28;20250;-68
2023/06/15 04:15:52;;;;;;;7.50;3.95;;;;;;;;;;5093759;28;20487;-68
2023/06/15 04:18:18;;;;;;;9.65;4.57;;;16.80;99.90;;;;;;5092473;28;20112;-68
2023/06/15 04:20:45;;;;;;;7.28;3.90;;;;;;;;;;5077717;28;20606;-68
2023/06/15 04:23:11;;;;;;;6.88;4.35;;;;;;;;;;5076629;28;20040;-68
2023/06/15 04:25:40;;;;;;;7.47;4.85;;;;;;;;;;5090928;28;20055;-69
2023/06/15 04:28:10;;;;;;;8.75;4.82;;;16.60;99.90;;;;;;5086197;28;20388;-70
2023/06/15 04:30:40;;;;;;;9.18;5.22;;;16.20;99.90;;;;;;5088174;28;20048;-70
2023/06/15 04:33:13;;;;;;;9.15;4.88;;;17.30;99.90;;;;;;5093107;28;20039;-70
2023/06/15 04:35:40;;;;;;;8.25;4.40;;;17.60;99.90;;;;;;5093374;28;20047;-70
2023/06/15 04:38:07;;;;;;;11.02;5.20;;;;;;;;;;5092658;28;20077;-70
2023/06/15 04:40:33;;;;;;;8.65;4.80;;;;;;;;;;5076639;28;20040;-70
2023/06/15 04:42:58;;;;;;;9.02;4.85;;;17.60;99.90;;;;;;5072721;28;20511;-70
2023/06/15 04:45:24;;;;;;;6.18;4.47;;;17.50;99.90;;;;;;5056004;28;20032;-70
2023/06/15 04:47:51;;;;;;;9.20;5.07;;;;;;;;;;5072649;28;20119;-70
2023/06/15 04:50:17;;;;;;;9.95;4.75;;;;;;;;;;5086077;28;20040;-70
2023/06/15 04:52:43;;;;;;;12.85;4.90;;;;;;;;;;5092390;28;20492;-70
2023/06/15 04:55:11;;;;;;;7.50;4.57;;;;;;;;;;5078053;28;20041;-71
2023/06/15 04:57:37;;;;;;;13.45;4.80;;;15.80;99.90;;;;;;5073236;28;20088;-71
2023/06/15 05:00:06;;;;;;;7.53;4.55;;;16.50;99.90;;;;;;5068082;28;20087;-70
2023/06/15 05:02:32;;;;;;;8.02;4.93;;;16.50;99.90;;;;;;5057126;28;20091;-70
2023/06/15 05:04:58;;;;;;;8.05;4.57;;;;;;;;;;5066849;28;20107;-71
2023/06/15 05:07:25;;;;;;;5.93;4.30;;;;;;;;;;5072245;28;20123;-67
2023/06/15 05:09:51;;;;;;;10.25;4.20;;;;;;;;;;5076954;28;20045;-68
2023/06/15 05:12:17;;;;;;;5.43;4.15;;;;;;;;;;5071620;28;20055;-68
2023/06/15 05:14:42;;;;;;;6.50;4.30;;;17.40;99.90;;;;;;5086348;28;20110;-68
2023/06/15 05:17:08;;;;;;;10.95;4.18;;;;;;;;;;5075470;28;20509;-68
2023/06/15 05:19:34;;;;;;;6.30;4.57;;;;;;;;;;5081952;28;20503;-68
2023/06/15 05:22:02;;;;;;;9.23;4.45;;;17.10;99.90;;;;;;5072378;28;20063;-68
2023/06/15 05:24:28;;;;;;;8.32;4.53;;;;;;;;;;5075757;28;20041;-68
2023/06/15 05:26:53;;;;;;;7.70;4.60;;;16.60;99.90;;;;;;5075762;28;20030;-68
2023/06/15 05:29:20;;;;;;;9.05;4.45;;;;;;;;;;5071346;28;20455;-68
2023/06/15 05:31:46;;;;;;;9.88;4.82;;;17.10;99.90;;;;;;5070639;28;20089;-68
2023/06/15 05:34:12;;;;;;;8.93;5.13;;;;;;;;;;5083943;28;20052;-68
2023/06/15 05:36:38;;;;;;;9.88;5.28;;;;;;;;;;5075224;28;20442;-68
2023/06/15 05:39:06;;;;;;;14.13;5.90;;;;;;;;;;5080458;28;20396;-68
2023/06/15 05:41:32;;;;;;;10.25;5.95;;;;;;;;;;5076790;28;20040;-68
2023/06/15 05:44:01;;;;;;;13.40;6.07;;;17.50;99.90;;;;;;5079211;28;20148;-68
2023/06/15 05:46:28;;;;;;;8.65;5.63;;;;;;;;;;5089034;28;20032;-68
2023/06/15 05:48:54;;;;;;;12.75;5.35;;;;;;;;;;5058678;28;20047;-68
2023/06/15 05:51:20;;;;;;;10.30;5.28;;;;;;;;;;5085005;28;20051;-68
2023/06/15 05:53:46;;;;;;;10.77;4.70;;;18.00;99.90;;;;;;5074903;28;20047;-68
2023/06/15 05:56:11;;;;;;;9.88;4.22;;;17.00;99.90;;;;;;5086340;28;20047;-68
2023/06/15 05:58:38;;;;;;;5.82;4.20;;;17.40;99.90;;;;;;5089670;28;20036;-68
2023/06/15 06:01:05;;;;;;;11.32;4.53;;;17.70;99.90;;;;;;5084564;28;20051;-70
2023/06/15 06:03:31;;;;;;;11.02;4.80;;;;;;;;;;5092036;28;20413;-71
2023/06/15 06:05:57;;;;;;;5.88;4.15;;;18.70;99.90;;;;;;5091492;28;20101;-71
2023/06/15 06:08:23;;;;;;;9.77;4.80;;;;;;;;;;5075072;28;20044;-71
2023/06/15 06:10:49;;;;;;;5.70;4.20;;;18.40;99.90;;;;;;5091973;28;20054;-71
2023/06/15 06:13:15;;;;;;;8.05;4.22;;;18.50;99.90;;;;;;5092152;28;20040;-71
2023/06/15 06:15:41;;;;;;;9.73;4.47;;;17.80;99.90;;;;;;5091647;28;20471;-71
2023/06/15 06:18:07;;;;;;;7.82;4.13;;;17.20;99.90;;;;;;5091682;28;20119;-71
2023/06/15 06:20:33;;;;;;;11.32;3.92;;;17.00;99.90;;;;;;5076305;28;20123;-71
2023/06/15 06:22:59;;;;;;;6.40;3.78;;;;;;;;;;5094059;28;20430;-71
2023/06/15 06:25:25;;;;;;;9.45;3.90;;;;;;;;;;5079001;28;20036;-72
2023/06/15 06:27:50;;;;;;;7.70;4.35;;;19.00;99.90;;;;;;5079271;28;20043;-71
2023/06/15 06:30:16;;;;;;;7.55;3.92;;;;;;;;;;5095676;28;20503;-71
2023/06/15 06:32:42;;;;;;;10.55;4.25;;;18.00;99.90;;;;;;5095598;28;20044;-71
2023/06/15 06:35:08;;;;;;;10.57;3.80;;;;;;;;;;5080219;28;20040;-72
2023/06/15 06:37:34;;;;;;;5.95;3.30;;;;;;;;;;5091611;28;20032;-71
2023/06/15 06:40:01;;;;;;;11.57;3.63;;;;;;;;;;5094721;28;20127;-71
2023/06/15 06:42:26;;;;;;;7.93;4.00;;;19.40;99.90;;;;;;5075356;28;20068;-72
2023/06/15 06:44:52;;;;;;;6.43;3.55;;;;;;;;;;5085786;28;20509;-72
2023/06/15 06:47:18;;;;;;;10.15;3.58;;;18.80;99.90;;;;;;5084505;28;20408;-71
2023/06/15 06:49:44;;;;;;;9.77;4.13;;;;;;;;;;5094017;28;20048;-71
2023/06/15 06:52:10;;;;;;;5.43;3.45;;;17.60;99.90;;;;;;5089984;28;20055;-71
2023/06/15 06:54:36;;;;;;;6.07;3.53;;;;;;;;;;5075833;28;20044;-71
2023/06/15 06:57:03;;;;;;;9.38;3.45;;;;;;;;;;5082339;28;20050;-72
2023/06/15 06:59:29;;;;;;;10.85;3.10;;;19.70;99.90;;;;;;5086719;28;20040;-72
2023/06/15 07:01:55;;;;;;;11.02;3.88;;;18.30;99.90;;;;;;5081061;28;20045;-72
2023/06/15 07:04:21;;;;;;;10.35;3.75;;;;;;;;;;5087026;28;20055;-71
2023/06/15 07:06:47;;;;;;;8.02;3.30;;;;;;;;;;5067507;28;20124;-71
2023/06/15 07:09:13;;;;;;;7.65;3.47;;;;;;;;;;5064299;28;20036;-71
2023/06/15 07:11:39;;;;;;;11.00;3.50;;;;;;;;;;5058585;28;20055;-72
2023/06/15 07:14:06;;;;;;;6.03;3.30;;;;;;;;;;5088859;28;20043;-71
2023/06/15 07:16:31;;;;;;;9.63;3.72;;;19.90;99.30;;;;;;5080219;28;20033;-71
2023/06/15 07:18:58;;;;;;;8.27;3.83;;;19.10;99.10;;;;;;5086506;28;20035;-71
2023/06/15 07:21:24;;;;;;;8.93;3.25;;;18.40;99.90;;;;;;5081633;28;20169;-71
2023/06/15 07:23:50;;;;;;;7.75;3.60;;;;;;;;;;5081950;28;20123;-72
2023/06/15 07:26:16;;;;;;;10.35;4.07;;;;;;;;;;5072813;28;20043;-72
2023/06/15 07:28:41;;;;;;;10.73;3.75;;;19.60;99.90;;;;;;5080541;28;20040;-72
2023/06/15 07:31:07;;;;;;;5.30;3.50;;;;;;;;;;5081761;28;20381;-71
2023/06/15 07:33:33;;;;;;;8.10;3.60;;;18.60;99.90;;;;;;5081510;28;20036;-71
2023/06/15 07:35:59;;;;;;;12.30;3.50;;;;;;;;;;5078818;28;20047;-71
2023/06/15 07:38:25;;;;;;;6.10;3.40;;;20.40;99.90;;;;;;5085024;28;20047;-71
2023/06/15 07:40:51;;;;;;;5.78;2.92;;;;;;;;;;5058534;28;20434;-71
2023/06/15 07:43:17;;;;;;;6.60;3.45;;;20.50;99.20;;;;;;5069673;28;20380;-72
2023/06/15 07:45:45;;;;;;;7.32;3.35;;;20.60;99.00;;;;;;5068164;28;20034;-72
2023/06/15 07:48:11;;;;;;;7.05;3.10;;;;;;;;;;5065526;28;20043;-73
2023/06/15 07:50:37;;;;;;;5.30;3.17;;;20.10;99.90;;;;;;5080407;28;20040;-72
2023/06/15 07:53:03;;;;;;;6.85;2.92;;;20.70;99.90;;;;;;5059666;28;20127;-72
2023/06/15 07:55:28;;;;;;;7.45;3.33;;;19.90;96.70;;;;;;5081587;28;20340;-72
2023/06/15 07:57:55;;;;;;;7.70;2.97;;;;;;;;;;5075776;28;20123;-72
2023/06/15 08:00:21;;;;;;;6.60;3.10;;;20.00;94.90;;;;;;5085226;28;20047;-72
2023/06/15 08:02:48;;;;;;;9.23;3.65;;;19.20;98.20;;;;;;5081980;28;20064;-72
2023/06/15 08:05:14;;;;;;;6.60;3.03;;;19.00;97.10;;;;;;5084168;28;20127;-72
2023/06/15 08:07:40;;;;;;;7.00;3.20;;;;;;;;;;5074004;28;20119;-72
2023/06/15 08:10:06;;;;;;;4.97;3.17;;;21.10;94.50;;;;;;5061967;28;20056;-72
2023/06/15 08:12:32;;;;;;;6.90;2.92;;;;;;;;;;5082468;28;20119;-72
2023/06/15 08:14:58;;;;;;;8.68;3.15;;;20.60;93.70;;;;;;5079932;28;20503;-72
2023/06/15 08:17:25;;;;;;;8.88;3.30;;;20.50;92.70;;;;;;5065318;28;20036;-72
2023/06/15 08:19:51;;;;;;;4.55;2.85;;;20.60;95.70;;;;;;5079038;28;20059;-72
2023/06/15 08:22:18;;;;;;;8.77;2.92;;;;;;;;;;5088272;28;20040;-69
2023/06/15 08:24:45;;;;;;;6.13;3.15;;;;;;;;;;5086222;28;20032;-69
2023/06/15 08:27:11;;;;;;;6.78;3.00;;;;;;;;;;5078044;28;20059;-68
2023/06/15 08:29:38;;;;;;;7.88;3.50;;;21.00;90.80;;;;;;5086186;28;20032;-68
2023/06/15 08:32:08;;;;;;;10.68;3.10;;;20.80;92.30;;;;;;5073581;28;20044;-69
2023/06/15 08:34:34;;;;;;;8.43;3.28;;;;;;;;;;5057141;28;20100;-68
2023/06/15 08:37:01;;;;;;;4.03;2.80;;;;;;;;;;5071109;28;20039;-69
2023/06/15 08:39:27;;;;;;;6.38;2.85;;;21.50;92.90;;;;;;5073827;28;20441;-68
2023/06/15 08:41:55;;;;;;;5.72;3.00;;;21.60;91.40;;;;;;5087009;28;20044;-69
2023/06/15 08:44:21;;;;;;;8.43;3.17;;;21.40;92.40;;;;;;5085171;28;20044;-69
2023/06/15 08:46:47;;;;;;;8.57;3.15;;;21.50;92.40;;;;;;5089824;28;20032;-69
2023/06/15 08:49:13;;;;;;;6.00;3.42;;;21.50;87.50;;;;;;5089390;28;20033;-69
2023/06/15 08:51:39;;;;;;;11.00;3.10;;;20.70;92.30;;;;;;5092659;28;20047;-68
2023/06/15 08:54:08;;;;;;;7.50;3.10;;;21.50;92.40;;;;;;5093568;28;20036;-69
2023/06/15 08:56:37;;;;;;;4.47;2.88;;;21.70;91.50;;;;;;5075144;28;20044;-69
2023/06/15 08:59:04;;;;;;;4.75;2.70;;;22.40;90.40;;;;;;5072928;28;20051;-68
2023/06/15 09:01:30;;;;;;;6.35;3.20;;;22.00;85.40;;;;;;5088542;28;20040;-68
2023/06/15 09:03:57;;;;;;;7.28;3.00;;;;;;;;;;5092671;28;20113;-73
2023/06/15 09:06:24;;;;;;;8.80;3.08;;;;;;;;;;5091108;28;20040;-74
2023/06/15 09:08:51;;;;;;;5.93;2.80;;;21.40;90.90;;;;;;5093840;28;20383;-69
2023/06/15 09:11:18;;;;;;;11.23;3.28;;;22.30;88.10;;;;;;5077063;28;20480;-68
2023/06/15 09:13:44;;;;;;;7.00;3.20;;;21.20;88.00;;;;;;5088011;28;20044;-69
2023/06/15 09:16:11;;;;;;;11.93;3.20;;;22.90;86.80;;;;;;5089731;28;20491;-69
2023/06/15 09:18:47;;;;;;;7.38;3.05;;;22.70;90.30;;;;;;5085397;28;20046;-69
2023/06/15 09:21:14;;;;;;;6.55;3.25;;;23.00;89.60;;;;;;5067719;28;20401;-69
2023/06/15 09:23:42;;;;;;;5.07;3.03;;;22.60;80.40;;;;;;5063599;28;20040;-69
2023/06/15 09:26:09;;;;;;;8.82;3.15;;;;;;;;;;5081462;28;20040;-69
2023/06/15 09:28:44;;;;;;;7.22;3.10;;;22.80;84.50;;;;;;5089947;28;20036;-69
2023/06/15 09:31:10;;;;;;;6.97;3.00;;;23.10;85.00;;;;;;5078297;28;20036;-69
2023/06/15 09:33:36;;;;;;;6.78;3.15;;;23.50;85.60;;;;;;5069032;28;20051;-69
2023/06/15 09:36:04;;;;;;;14.40;3.13;;;22.70;85.10;;;;;;5083962;28;20047;-69
2023/06/15 09:38:41;;;;;;;7.20;3.22;;;23.00;84.90;;;;;;5080110;28;20526;-69
2023/06/15 09:41:07;;;;;;;12.07;3.42;;;23.20;75.60;;;;;;5083834;28;20044;-69
2023/06/15 09:43:35;;;;;;;9.23;3.15;;;23.90;84.50;;;;;;5068199;28;20044;-68
2023/06/15 09:46:02;;;;;;;14.70;3.50;;;23.40;75.40;;;;;;5086134;28;20039;-69
2023/06/15 09:48:31;;;;;;;12.30;3.00;;;22.80;83.00;;;;;;5073017;28;20062;-69
2023/06/15 09:51:04;;;;;;;7.13;2.80;;;23.90;80.30;;;;;;5086909;28;20047;-70
2023/06/15 09:53:33;;;;;;;6.38;2.90;;;23.90;72.30;;;;;;5083783;28;20040;-67
2023/06/15 09:56:00;;;;;;;5.68;3.05;;;24.20;74.30;;;;;;5070316;28;20476;-69
2023/06/15 09:58:26;;;;;;;7.15;3.00;;;24.70;82.50;;;;;;5059485;28;20048;-70
2023/06/15 10:00:57;;;;;;;4.55;3.15;;;24.10;73.10;;;;;;5075087;28;20492;-71
2023/06/15 10:03:25;;;;;;;5.40;2.97;;;24.80;81.10;;;;;;5091902;28;20081;-72
2023/06/15 10:06:08;;;;;;;11.43;3.65;;;24.80;80.80;;;;;;5087714;28;20044;-70
2023/06/15 10:08:38;;;;;;;7.32;3.05;;;23.90;73.00;;;;;;5083709;28;20040;-71
2023/06/15 10:11:04;;;;;;;7.18;3.55;;;24.80;80.10;;;;;;5091704;28;20035;-70
2023/06/15 10:13:45;;;;;;;7.47;3.40;;;25.10;79.60;;;;;;5075847;28;20504;-70
2023/06/15 10:16:15;;;;;;;7.82;3.30;;;24.60;71.20;;;;;;5078121;28;20115;-72
2023/06/15 10:18:43;;;;;;;5.95;3.38;;;25.20;79.10;;;;;;5083552;28;20048;-71
2023/06/15 10:21:14;;;;;;;9.63;3.42;;;24.80;71.20;;;;;;5090249;28;20037;-71
2023/06/15 10:23:42;;;;;;;8.80;3.10;;;24.80;70.00;;;;;;5092011;28;20067;-71
2023/06/15 10:26:11;;;;;;;11.25;3.70;;;24.20;74.60;;;;;;5067274;28;20419;-71
2023/06/15 10:29:00;;;;;;;6.38;3.25;;;24.60;73.60;;;;;;5055092;28;20401;-71
2023/06/15 10:31:51;;;;;;;6.45;3.67;;;25.50;78.60;;;;;;5058922;28;20096;-71
2023/06/15 10:34:26;;;;;;;10.10;3.63;;;25.90;68.30;;;;;;5091598;28;20052;-71
2023/06/15 10:37:16;;;;;;;7.13;3.40;;;25.50;68.40;;;;;;5073387;28;20049;-71
2023/06/15 10:39:46;;;;;;;6.72;3.20;;;25.30;70.00;;;;;;5071343;28;20119;-71
2023/06/15 10:42:14;;;;;;;7.60;3.35;;;25.90;78.40;;;;;;5071944;28;20066;-71
2023/06/15 10:44:40;;;;;;;7.75;3.45;;;25.10;77.60;;;;;;5071214;28;20177;-71
2023/06/15 10:47:12;;;;;;;7.20;3.35;;;26.10;78.20;;;;;;5083533;28;20119;-70
2023/06/15 10:49:49;;;;;;;7.00;3.50;;;26.10;77.30;;;;;;5071145;28;20037;-70
2023/06/15 10:52:14;;;;;;;5.53;3.53;;;26.20;71.40;;;;;;5071014;28;20044;-71
2023/06/15 10:54:41;;;;;;;7.10;3.70;;;25.30;77.00;;;;;;5071156;28;20044;-71
2023/06/15 10:57:07;;;;;;;9.40;3.72;;;26.30;77.30;;;;;;5090986;28;20055;-71
2023/06/15 10:59:54;;;;;;;8.27;3.83;;;26.10;65.70;;;;;;5081015;28;20040;-70
2023/06/15 11:02:32;;;;;;;9.20;3.85;;;25.70;75.60;;;;;;5087294;28;20064;-71
2023/06/15 11:05:04;;;;;;;5.47;3.33;;;26.20;65.00;;;;;;5074506;28;20056;-71
2023/06/15 11:07:41;;;;;;;7.32;3.47;;;25.90;68.00;;;;;;5074487;28;20051;-70
2023/06/15 11:10:27;;;;;;;7.07;3.40;;;26.30;73.30;;;;;;5093111;28;20482;-71
2023/06/15 11:13:23;;;;;;;6.97;3.35;;;25.60;73.10;;;;;;5080342;28;20456;-71
2023/06/15 11:16:06;;;;;;;7.35;3.17;;;25.70;72.50;;;;;;5094685;28;20047;-70
2023/06/15 11:18:32;;;;;;;8.05;3.10;;;25.80;72.10;;;;;;5076869;28;20393;-71
2023/06/15 11:20:59;;;;;;;7.47;3.72;;;26.50;72.80;;;;;;5029752;28;20078;-71
2023/06/15 11:23:32;;;;;;;13.15;3.53;;;26.50;68.20;;;;;;5091721;28;20043;-70
2023/06/15 11:26:01;;;;;;;6.65;3.20;;;;;;;;;;5061542;28;20036;-70
2023/06/15 11:28:33;;;;;;;6.90;3.33;;;26.60;72.10;;;;;;5076899;28;20044;-70
2023/06/15 11:31:00;;;;;;;;;;;26.30;64.30;;;;;;5074994;28;20076;-71
2023/06/15 11:33:30;;;;;;;7.22;3.38;;;26.50;72.10;;;;;;5082101;28;19916;-71
2023/06/15 11:36:01;;;;;;;7.45;3.45;;;26.70;72.40;;;;;;5083029;28;20392;-71
2023/06/15 11:38:27;;;;;;;6.60;3.88;;;26.90;71.80;;;;;;5084549;28;20058;-71
2023/06/15 11:41:19;;;;;;;5.25;3.40;;;26.60;71.20;;;;;;5076472;28;20049;-71
2023/06/15 11:43:49;;;;;;;7.63;3.60;;;26.70;71.40;;;;;;5077487;28;20049;-71
2023/06/15 11:46:17;;;;;;;7.45;3.92;;;26.20;71.00;;;;;;5074133;28;20139;-72
2023/06/15 11:48:44;;;;;;;9.75;3.95;;;26.70;62.20;;;;;;5086248;28;20036;-72
2023/06/15 11:51:11;;;;;;;10.07;3.53;;;27.00;70.90;;;;;;5083955;28;20048;-71
2023/06/15 11:53:39;;;;;;;5.43;3.63;;;26.90;70.60;;;;;;5088390;28;20047;-72
2023/06/15 11:56:12;;;;;;;8.15;3.58;;;26.80;67.20;;;;;;5086215;28;20484;-72
2023/06/15 11:58:39;;;;;;;7.72;3.75;;;26.10;69.90;;;;;;5077528;28;20028;-71
2023/06/15 12:01:05;;;;;;;6.53;3.50;;;;;;;;;;5077972;28;20560;-69
2023/06/15 12:03:37;;;;;;;12.23;4.10;;;;;;;;;;5073132;28;20039;-69
2023/06/15 12:06:03;;;;;;;6.43;3.90;;;27.30;71.00;;;;;;5074028;28;20495;-69
2023/06/15 12:08:31;;;;;;;9.75;4.18;;;27.10;70.70;;;;;;5077158;28;20112;-69
2023/06/15 12:10:57;;;;;;;6.85;3.58;;;27.30;70.30;;;;;;5084917;28;20048;-69
2023/06/15 12:13:23;;;;;;;8.52;3.35;;;26.80;70.20;;;;;;5082122;28;20119;-69
2023/06/15 12:15:51;;;;;;;7.60;3.67;;;;;;;;;;5072652;28;20101;-69
2023/06/15 12:18:19;;;;;;;11.38;3.90;;;26.90;70.40;;;;;;5084323;28;20041;-69
2023/06/15 12:20:50;;;;;;;7.43;3.70;;;26.90;61.20;;;;;;5064722;28;20046;-69
2023/06/15 12:23:30;;;;;;;7.57;4.22;;;26.80;69.90;;;;;;5084299;28;20119;-69
2023/06/15 12:25:57;;;;;;;7.53;4.00;;;27.00;70.10;;;;;;5079742;28;20069;-69
2023/06/15 12:28:24;;;;;;;6.47;3.90;;;27.10;61.60;;;;;;5074588;28;20044;-69
2023/06/15 12:30:51;;;;;;;10.38;3.70;;;;;;;;;;5080291;28;20056;-69
2023/06/15 12:33:38;;;;;;;7.80;4.03;;;27.40;70.40;;;;;;5087407;28;20040;-69
2023/06/15 12:36:12;;;;;;;11.55;4.30;;;26.60;69.00;;;;;;5078381;28;20036;-69
2023/06/15 12:38:39;;;;;;;11.75;3.83;;;27.10;70.00;;;;;;5081637;28;20040;-70
2023/06/15 12:41:12;;;;;;;6.30;3.83;;;27.40;65.90;;;;;;5078351;28;20100;-69
2023/06/15 12:43:38;;;;;;;10.52;3.92;;;27.00;68.60;;;;;;5076818;28;20480;-69
2023/06/15 12:46:04;;;;;;;7.63;4.32;;;;;;;;;;5077758;28;20101;-69
2023/06/15 12:48:31;;;;;;;16.95;4.40;;;;;;;;;;5056348;28;20177;-69
2023/06/15 12:50:57;;;;;;;10.40;4.60;;;;;;;;;;5081579;28;20067;-74
2023/06/15 12:53:23;;;;;;;10.90;3.80;;;27.50;62.30;;;;;;5074801;28;20047;-69
2023/06/15 12:55:49;;;;;;;10.27;3.92;;;26.80;69.30;;;;;;5088567;28;20036;-69
2023/06/15 12:58:16;;;;;;;6.35;3.72;;;;;;;;;;5078606;28;20037;-69
2023/06/15 13:00:45;;;;;;;12.68;3.90;;;27.50;69.70;;;;;;5087682;28;20634;-69
2023/06/15 13:03:11;;;;;;;12.70;3.80;;;27.30;69.90;;;;;;5073498;28;20494;-69
2023/06/15 13:05:43;;;;;;;13.27;4.65;;;27.40;61.00;;;;;;5074757;28;20072;-69
2023/06/15 13:08:09;;;;;;;8.30;3.70;;;27.60;70.20;;;;;;5063782;28;20044;-69
2023/06/15 13:10:35;;;;;;;10.80;4.40;;;27.50;70.10;;;;;;5084104;28;20077;-69
2023/06/15 13:13:02;;;;;;;6.13;3.78;;;;;;;;;;5065912;28;20067;-69
2023/06/15 13:15:29;;;;;;;13.63;3.95;;;;;;;;;;5081842;28;20047;-69
2023/06/15 13:17:56;;;;;;;10.25;4.03;;;27.60;69.60;;;;;;5075136;28;20056;-71
2023/06/15 13:20:22;;;;;;;8.52;4.10;;;27.50;69.70;;;;;;5092508;28;20444;-69